createdAt,value
2022-09-23T00:00:00.287Z,22.52
2022-09-23T00:00:10.411Z,22.52
2022-09-23T00:00:20.536Z,22.52
2022-09-23T00:00:30.530Z,22.52
2022-09-23T00:00:40.659Z,22.52
2022-09-23T00:00:50.996Z,22.52
2022-09-23T00:01:01.191Z,22.52
2022-09-23T00:01:11.345Z,22.52
2022-09-23T00:01:21.595Z,22.52
2022-09-23T00:01:31.589Z,22.52
2022-09-23T00:01:41.639Z,22.52
2022-09-23T00:01:51.662Z,22.51
2022-09-23T00:02:01.742Z,22.51
2022-09-23T00:02:11.834Z,22.52
2022-09-23T00:02:21.896Z,22.51
2022-09-23T00:02:31.974Z,22.51
2022-09-23T00:02:42.146Z,22.51
2022-09-23T00:02:52.073Z,22.51
2022-09-23T00:03:02.392Z,22.51
2022-09-23T00:03:12.393Z,22.52
2022-09-23T00:03:22.388Z,22.51
2022-09-23T00:03:32.772Z,22.51
2022-09-23T00:03:42.891Z,22.51
2022-09-23T00:03:53.007Z,22.51
2022-09-23T00:04:03.135Z,22.52
2022-09-23T00:04:13.257Z,22.51
2022-09-23T00:04:23.371Z,22.51
2022-09-23T00:04:33.512Z,22.51
2022-09-23T00:04:43.512Z,22.51
2022-09-23T00:04:53.628Z,22.51
2022-09-23T00:05:03.876Z,22.52
2022-09-23T00:05:13.990Z,22.52
2022-09-23T00:05:24.115Z,22.51
2022-09-23T00:05:34.239Z,22.51
2022-09-23T00:05:44.250Z,22.52
2022-09-23T00:05:54.239Z,22.51
2022-09-23T00:06:04.612Z,22.51
2022-09-23T00:06:14.735Z,22.52
2022-09-23T00:06:24.735Z,22.51
2022-09-23T00:06:34.983Z,22.51
2022-09-23T00:06:45.099Z,22.52
2022-09-23T00:06:55.227Z,22.51
2022-09-23T00:07:05.342Z,22.52
2022-09-23T00:07:15.343Z,22.51
2022-09-23T00:07:25.455Z,22.51
2022-09-23T00:07:35.707Z,22.51
2022-09-23T00:07:45.822Z,22.51
2022-09-23T00:07:55.944Z,22.51
2022-09-23T00:08:06.067Z,22.51
2022-09-23T00:08:16.185Z,22.51
2022-09-23T00:08:26.182Z,22.51
2022-09-23T00:08:36.437Z,22.51
2022-09-23T00:08:46.436Z,22.52
2022-09-23T00:08:56.549Z,22.51
2022-09-23T00:09:06.857Z,22.51
2022-09-23T00:09:16.831Z,22.51
2022-09-23T00:09:26.822Z,22.51
2022-09-23T00:09:36.830Z,22.51
2022-09-23T00:09:46.956Z,22.51
2022-09-23T00:09:57.075Z,22.51
2022-09-23T00:10:07.194Z,22.51
2022-09-23T00:10:17.198Z,22.51
2022-09-23T00:10:27.194Z,22.50
2022-09-23T00:10:37.309Z,22.50
2022-09-23T00:10:47.312Z,22.51
2022-09-23T00:10:57.433Z,22.51
2022-09-23T00:11:07.544Z,22.51
2022-09-23T00:11:17.683Z,22.50
2022-09-23T00:11:27.677Z,22.50
2022-09-23T00:11:37.792Z,22.50
2022-09-23T00:11:47.910Z,22.50
2022-09-23T00:11:58.037Z,22.50
2022-09-23T00:12:09.215Z,22.51
2022-09-23T00:12:18.146Z,22.50
2022-09-23T00:12:28.269Z,22.50
2022-09-23T00:12:38.384Z,22.51
2022-09-23T00:12:48.386Z,22.51
2022-09-23T00:12:58.512Z,22.50
2022-09-23T00:13:08.532Z,22.51
2022-09-23T00:13:18.526Z,22.51
2022-09-23T00:13:28.781Z,22.50
2022-09-23T00:13:38.899Z,22.51
2022-09-23T00:13:48.948Z,22.50
2022-09-23T00:13:59.200Z,22.50
2022-09-23T00:14:09.198Z,22.50
2022-09-23T00:14:19.318Z,22.50
2022-09-23T00:14:29.561Z,22.50
2022-09-23T00:14:39.685Z,22.50
2022-09-23T00:14:49.676Z,22.51
2022-09-23T00:14:59.933Z,22.50
2022-09-23T00:15:09.928Z,22.51
2022-09-23T00:15:20.042Z,22.51
2022-09-23T00:15:30.299Z,22.51
2022-09-23T00:15:40.420Z,22.51
2022-09-23T00:15:50.413Z,22.51
2022-09-23T00:16:00.660Z,22.51
2022-09-23T00:16:10.777Z,22.51
2022-09-23T00:16:21.025Z,22.51
2022-09-23T00:16:31.147Z,22.50
2022-09-23T00:16:41.258Z,22.50
2022-09-23T00:16:51.184Z,22.50
2022-09-23T00:17:01.275Z,22.50
2022-09-23T00:17:11.367Z,22.50
2022-09-23T00:17:21.347Z,22.50
2022-09-23T00:17:31.495Z,22.50
2022-09-23T00:17:41.497Z,22.50
2022-09-23T00:17:51.635Z,22.50
2022-09-23T00:18:01.728Z,22.50
2022-09-23T00:18:11.848Z,22.49
2022-09-23T00:18:21.965Z,22.50
2022-09-23T00:18:32.090Z,22.49
2022-09-23T00:18:42.086Z,22.50
2022-09-23T00:18:52.216Z,22.50
2022-09-23T00:19:02.210Z,22.50
2022-09-23T00:19:12.473Z,22.50
2022-09-23T00:19:22.587Z,22.50
2022-09-23T00:19:32.704Z,22.49
2022-09-23T00:19:42.834Z,22.50
2022-09-23T00:19:52.943Z,22.50
2022-09-23T00:20:03.066Z,22.49
2022-09-23T00:20:13.202Z,22.50
2022-09-23T00:20:23.323Z,22.49
2022-09-23T00:20:33.438Z,22.50
2022-09-23T00:20:43.566Z,22.49
2022-09-23T00:20:53.564Z,22.50
2022-09-23T00:21:03.679Z,22.50
2022-09-23T00:21:13.940Z,22.50
2022-09-23T00:21:24.063Z,22.49
2022-09-23T00:21:34.179Z,22.50
2022-09-23T00:21:44.300Z,22.49
2022-09-23T00:21:54.420Z,22.50
2022-09-23T00:22:04.537Z,22.49
2022-09-23T00:22:14.659Z,22.50
2022-09-23T00:22:24.661Z,22.49
2022-09-23T00:22:34.668Z,22.50
2022-09-23T00:22:44.668Z,22.50
2022-09-23T00:22:54.792Z,22.49
2022-09-23T00:23:04.911Z,22.49
2022-09-23T00:23:15.025Z,22.49
2022-09-23T00:23:25.150Z,22.49
2022-09-23T00:23:35.161Z,22.49
2022-09-23T00:23:45.149Z,22.49
2022-09-23T00:23:55.267Z,22.49
2022-09-23T00:24:05.574Z,22.49
2022-09-23T00:24:15.508Z,22.49
2022-09-23T00:24:25.632Z,22.49
2022-09-23T00:24:35.748Z,22.49
2022-09-23T00:24:45.758Z,22.50
2022-09-23T00:24:55.760Z,22.49
2022-09-23T00:25:05.879Z,22.49
2022-09-23T00:25:16.003Z,22.49
2022-09-23T00:25:26.133Z,22.49
2022-09-23T00:25:36.249Z,22.49
2022-09-23T00:25:46.370Z,22.49
2022-09-23T00:25:56.492Z,22.49
2022-09-23T00:26:06.609Z,22.48
2022-09-23T00:26:16.605Z,22.49
2022-09-23T00:26:26.866Z,22.49
2022-09-23T00:26:36.865Z,22.49
2022-09-23T00:26:46.865Z,22.49
2022-09-23T00:26:57.238Z,22.49
2022-09-23T00:27:07.357Z,22.49
2022-09-23T00:27:17.473Z,22.49
2022-09-23T00:27:27.605Z,22.49
2022-09-23T00:27:37.596Z,22.49
2022-09-23T00:27:47.595Z,22.49
2022-09-23T00:27:57.987Z,22.49
2022-09-23T00:28:07.990Z,22.49
2022-09-23T00:28:18.010Z,22.49
2022-09-23T00:28:28.368Z,22.49
2022-09-23T00:28:38.363Z,22.49
2022-09-23T00:28:48.484Z,22.49
2022-09-23T00:28:58.733Z,22.49
2022-09-23T00:29:08.961Z,22.49
2022-09-23T00:29:18.949Z,22.49
2022-09-23T00:29:29.207Z,22.48
2022-09-23T00:29:39.227Z,22.48
2022-09-23T00:29:49.222Z,22.49
2022-09-23T00:29:59.593Z,22.48
2022-09-23T00:30:09.720Z,22.48
2022-09-23T00:30:19.825Z,22.49
2022-09-23T00:30:29.976Z,22.49
2022-09-23T00:30:40.055Z,22.49
2022-09-23T00:30:50.130Z,22.49
2022-09-23T00:31:00.458Z,22.48
2022-09-23T00:31:10.530Z,22.48
2022-09-23T00:31:20.716Z,22.47
2022-09-23T00:31:30.869Z,22.48
2022-09-23T00:31:40.872Z,22.48
2022-09-23T00:31:50.988Z,22.48
2022-09-23T00:32:01.270Z,22.48
2022-09-23T00:32:11.257Z,22.49
2022-09-23T00:32:21.381Z,22.48
2022-09-23T00:32:31.624Z,22.48
2022-09-23T00:32:41.743Z,22.49
2022-09-23T00:32:51.868Z,22.48
2022-09-23T00:33:02.011Z,22.48
2022-09-23T00:33:12.103Z,22.48
2022-09-23T00:33:22.219Z,22.48
2022-09-23T00:33:32.343Z,22.49
2022-09-23T00:33:42.456Z,22.48
2022-09-23T00:33:52.594Z,22.48
2022-09-23T00:34:02.713Z,22.48
2022-09-23T00:34:12.832Z,22.48
2022-09-23T00:34:22.956Z,22.48
2022-09-23T00:34:33.082Z,22.48
2022-09-23T00:34:43.195Z,22.48
2022-09-23T00:34:53.309Z,22.47
2022-09-23T00:35:03.441Z,22.48
2022-09-23T00:35:13.564Z,22.47
2022-09-23T00:35:23.563Z,22.48
2022-09-23T00:35:33.828Z,22.47
2022-09-23T00:35:43.821Z,22.48
2022-09-23T00:35:53.938Z,22.47
2022-09-23T00:36:04.195Z,22.48
2022-09-23T00:36:14.313Z,22.48
2022-09-23T00:36:24.428Z,22.48
2022-09-23T00:36:34.551Z,22.48
2022-09-23T00:36:44.674Z,22.48
2022-09-23T00:36:54.794Z,22.48
2022-09-23T00:37:04.923Z,22.48
2022-09-23T00:37:15.040Z,22.48
2022-09-23T00:37:25.155Z,22.47
2022-09-23T00:37:35.301Z,22.48
2022-09-23T00:37:45.307Z,22.48
2022-09-23T00:37:55.334Z,22.48
2022-09-23T00:38:05.310Z,22.49
2022-09-23T00:38:15.430Z,22.48
2022-09-23T00:38:25.427Z,22.48
2022-09-23T00:38:35.549Z,22.48
2022-09-23T00:38:45.559Z,22.48
2022-09-23T00:38:55.695Z,22.48
2022-09-23T00:39:05.928Z,22.48
2022-09-23T00:39:15.757Z,22.48
2022-09-23T00:39:25.764Z,22.48
2022-09-23T00:39:35.880Z,22.48
2022-09-23T00:39:46.148Z,22.48
2022-09-23T00:39:56.138Z,22.47
2022-09-23T00:40:06.296Z,22.48
2022-09-23T00:40:16.647Z,22.47
2022-09-23T00:40:26.712Z,22.47
2022-09-23T00:40:36.814Z,22.48
2022-09-23T00:40:47.154Z,22.48
2022-09-23T00:40:57.150Z,22.47
2022-09-23T00:41:07.149Z,22.48
2022-09-23T00:41:17.141Z,22.47
2022-09-23T00:41:27.228Z,22.47
2022-09-23T00:41:37.345Z,22.47
2022-09-23T00:41:47.476Z,22.47
2022-09-23T00:41:57.477Z,22.47
2022-09-23T00:42:07.474Z,22.47
2022-09-23T00:42:17.598Z,22.47
2022-09-23T00:42:27.711Z,22.47
2022-09-23T00:42:37.830Z,22.48
2022-09-23T00:42:47.840Z,22.47
2022-09-23T00:42:57.972Z,22.47
2022-09-23T00:43:07.967Z,22.47
2022-09-23T00:43:18.112Z,22.48
2022-09-23T00:43:28.393Z,22.48
2022-09-23T00:43:38.397Z,22.47
2022-09-23T00:43:48.403Z,22.47
2022-09-23T00:43:58.782Z,22.47
2022-09-23T00:44:08.913Z,22.48
2022-09-23T00:44:18.910Z,22.47
2022-09-23T00:44:29.158Z,22.47
2022-09-23T00:44:39.282Z,22.47
2022-09-23T00:44:49.272Z,22.47
2022-09-23T00:44:59.523Z,22.47
2022-09-23T00:45:09.521Z,22.47
2022-09-23T00:45:19.636Z,22.46
2022-09-23T00:45:29.882Z,22.47
2022-09-23T00:45:40.036Z,22.47
2022-09-23T00:45:50.126Z,22.47
2022-09-23T00:46:00.350Z,22.47
2022-09-23T00:46:10.405Z,22.47
2022-09-23T00:46:20.611Z,22.46
2022-09-23T00:46:30.812Z,22.46
2022-09-23T00:46:40.804Z,22.46
2022-09-23T00:46:50.931Z,22.46
2022-09-23T00:47:01.340Z,22.47
2022-09-23T00:47:11.195Z,22.46
2022-09-23T00:47:21.194Z,22.46
2022-09-23T00:47:31.580Z,22.46
2022-09-23T00:47:41.583Z,22.47
2022-09-23T00:47:51.695Z,22.47
2022-09-23T00:48:01.951Z,22.47
2022-09-23T00:48:12.101Z,22.47
2022-09-23T00:48:22.193Z,22.46
2022-09-23T00:48:32.319Z,22.47
2022-09-23T00:48:42.324Z,22.47
2022-09-23T00:48:52.314Z,22.47
2022-09-23T00:49:02.321Z,22.47
2022-09-23T00:49:12.436Z,22.47
2022-09-23T00:49:22.437Z,22.46
2022-09-23T00:49:32.442Z,22.46
2022-09-23T00:49:42.442Z,22.47
2022-09-23T00:49:52.559Z,22.47
2022-09-23T00:50:02.596Z,22.47
2022-09-23T00:50:12.726Z,22.47
2022-09-23T00:50:22.837Z,22.47
2022-09-23T00:50:32.833Z,22.47
2022-09-23T00:50:43.084Z,22.47
2022-09-23T00:50:53.199Z,22.47
2022-09-23T00:51:03.320Z,22.47
2022-09-23T00:51:13.475Z,22.47
2022-09-23T00:51:23.469Z,22.47
2022-09-23T00:51:33.586Z,22.46
2022-09-23T00:51:43.833Z,22.47
2022-09-23T00:51:53.952Z,22.47
2022-09-23T00:52:04.068Z,22.47
2022-09-23T00:52:14.200Z,22.46
2022-09-23T00:52:24.196Z,22.47
2022-09-23T00:52:34.319Z,22.47
2022-09-23T00:52:44.573Z,22.47
2022-09-23T00:52:54.690Z,22.47
2022-09-23T00:53:04.814Z,22.47
2022-09-23T00:53:14.953Z,22.46
2022-09-23T00:53:24.947Z,22.46
2022-09-23T00:53:35.065Z,22.47
2022-09-23T00:53:45.322Z,22.47
2022-09-23T00:53:55.437Z,22.46
2022-09-23T00:54:05.598Z,22.47
2022-09-23T00:54:15.774Z,22.46
2022-09-23T00:54:25.772Z,22.47
2022-09-23T00:54:35.908Z,22.47
2022-09-23T00:54:46.159Z,22.46
2022-09-23T00:54:56.279Z,22.46
2022-09-23T00:55:06.403Z,22.46
2022-09-23T00:55:16.533Z,22.46
2022-09-23T00:55:26.531Z,22.46
2022-09-23T00:55:36.652Z,22.47
2022-09-23T00:55:46.907Z,22.47
2022-09-23T00:55:57.023Z,22.46
2022-09-23T00:56:07.022Z,22.46
2022-09-23T00:56:17.273Z,22.46
2022-09-23T00:56:27.270Z,22.46
2022-09-23T00:56:37.387Z,22.46
2022-09-23T00:56:47.641Z,22.46
2022-09-23T00:56:57.776Z,22.46
2022-09-23T00:57:07.762Z,22.46
2022-09-23T00:57:18.011Z,22.46
2022-09-23T00:57:28.132Z,22.46
2022-09-23T00:57:38.246Z,22.46
2022-09-23T00:57:48.376Z,22.46
2022-09-23T00:57:58.496Z,22.46
2022-09-23T00:58:08.502Z,22.46
2022-09-23T00:58:18.754Z,22.46
2022-09-23T00:58:28.880Z,22.46
2022-09-23T00:58:38.869Z,22.46
2022-09-23T00:58:49.142Z,22.46
2022-09-23T00:58:59.138Z,22.46
2022-09-23T00:59:09.325Z,22.46
2022-09-23T00:59:19.586Z,22.46
2022-09-23T00:59:29.704Z,22.46
2022-09-23T00:59:39.829Z,22.46
2022-09-23T00:59:49.949Z,22.46
2022-09-23T01:00:00.096Z,22.47
2022-09-23T01:00:10.074Z,22.46
2022-09-23T01:00:20.323Z,22.46
2022-09-23T01:00:30.332Z,22.47
2022-09-23T01:00:40.453Z,22.47
2022-09-23T01:00:50.837Z,22.46
2022-09-23T01:01:00.797Z,22.46
2022-09-23T01:01:10.824Z,22.46
2022-09-23T01:01:20.925Z,22.46
2022-09-23T01:01:30.956Z,22.46
2022-09-23T01:01:40.996Z,22.46
2022-09-23T01:01:51.042Z,22.46
2022-09-23T01:02:01.237Z,22.45
2022-09-23T01:02:11.450Z,22.45
2022-09-23T01:02:21.400Z,22.45
2022-09-23T01:02:31.475Z,22.45
2022-09-23T01:02:41.556Z,22.45
2022-09-23T01:02:51.710Z,22.45
2022-09-23T01:03:01.598Z,22.45
2022-09-23T01:03:11.713Z,22.45
2022-09-23T01:03:21.746Z,22.46
2022-09-23T01:03:31.728Z,22.46
2022-09-23T01:03:41.729Z,22.45
2022-09-23T01:03:51.733Z,22.45
2022-09-23T01:04:01.737Z,22.45
2022-09-23T01:04:11.980Z,22.46
2022-09-23T01:04:22.097Z,22.45
2022-09-23T01:04:32.095Z,22.46
2022-09-23T01:04:42.352Z,22.45
2022-09-23T01:04:52.368Z,22.46
2022-09-23T01:05:02.361Z,22.46
2022-09-23T01:05:12.354Z,22.45
2022-09-23T01:05:22.361Z,22.45
2022-09-23T01:05:32.364Z,22.46
2022-09-23T01:05:42.486Z,22.45
2022-09-23T01:05:52.486Z,22.46
2022-09-23T01:06:02.606Z,22.46
2022-09-23T01:06:12.719Z,22.45
2022-09-23T01:06:22.841Z,22.46
2022-09-23T01:06:32.968Z,22.44
2022-09-23T01:06:43.077Z,22.45
2022-09-23T01:06:53.086Z,22.46
2022-09-23T01:07:03.100Z,22.45
2022-09-23T01:07:13.091Z,22.45
2022-09-23T01:07:23.471Z,22.45
2022-09-23T01:07:33.477Z,22.45
2022-09-23T01:07:43.467Z,22.46
2022-09-23T01:07:53.844Z,22.45
2022-09-23T01:08:03.960Z,22.46
2022-09-23T01:08:14.074Z,22.45
2022-09-23T01:08:24.198Z,22.45
2022-09-23T01:08:34.328Z,22.45
2022-09-23T01:08:44.316Z,22.45
2022-09-23T01:08:54.651Z,22.46
2022-09-23T01:09:04.643Z,22.45
2022-09-23T01:09:14.758Z,22.45
2022-09-23T01:09:25.013Z,22.45
2022-09-23T01:09:35.129Z,22.45
2022-09-23T01:09:45.244Z,22.45
2022-09-23T01:09:55.365Z,22.45
2022-09-23T01:10:05.506Z,22.45
2022-09-23T01:10:15.501Z,22.45
2022-09-23T01:10:25.755Z,22.45
2022-09-23T01:10:35.870Z,22.45
2022-09-23T01:10:45.987Z,22.45
2022-09-23T01:10:56.109Z,22.45
2022-09-23T01:11:06.226Z,22.45
2022-09-23T01:11:16.339Z,22.45
2022-09-23T01:11:26.468Z,22.45
2022-09-23T01:11:36.480Z,22.45
2022-09-23T01:11:46.484Z,22.45
2022-09-23T01:11:56.848Z,22.45
2022-09-23T01:12:06.975Z,22.45
2022-09-23T01:12:16.968Z,22.44
2022-09-23T01:12:27.225Z,22.45
2022-09-23T01:12:37.213Z,22.45
2022-09-23T01:12:47.333Z,22.45
2022-09-23T01:12:57.581Z,22.45
2022-09-23T01:13:07.588Z,22.45
2022-09-23T01:13:17.703Z,22.45
2022-09-23T01:13:27.951Z,22.44
2022-09-23T01:13:38.075Z,22.45
2022-09-23T01:13:48.188Z,22.45
2022-09-23T01:13:58.328Z,22.45
2022-09-23T01:14:08.487Z,22.46
2022-09-23T01:14:18.371Z,22.44
2022-09-23T01:14:28.383Z,22.45
2022-09-23T01:14:38.373Z,22.45
2022-09-23T01:14:48.490Z,22.45
2022-09-23T01:14:58.605Z,22.45
2022-09-23T01:15:08.726Z,22.44
2022-09-23T01:15:18.731Z,22.44
2022-09-23T01:15:28.853Z,22.44
2022-09-23T01:15:38.856Z,22.45
2022-09-23T01:15:48.974Z,22.45
2022-09-23T01:15:58.984Z,22.44
2022-09-23T01:16:09.118Z,22.44
2022-09-23T01:16:19.192Z,22.45
2022-09-23T01:16:29.255Z,22.44
2022-09-23T01:16:39.397Z,22.44
2022-09-23T01:16:49.322Z,22.43
2022-09-23T01:16:59.347Z,22.44
2022-09-23T01:17:09.338Z,22.43
2022-09-23T01:17:19.466Z,22.44
2022-09-23T01:17:29.582Z,22.44
2022-09-23T01:17:39.594Z,22.43
2022-09-23T01:17:49.834Z,22.44
2022-09-23T01:17:59.830Z,22.44
2022-09-23T01:18:09.954Z,22.44
2022-09-23T01:18:20.199Z,22.44
2022-09-23T01:18:30.340Z,22.44
2022-09-23T01:18:40.429Z,22.43
2022-09-23T01:18:50.565Z,22.44
2022-09-23T01:19:00.562Z,22.44
2022-09-23T01:19:10.684Z,22.44
2022-09-23T01:19:20.938Z,22.44
2022-09-23T01:19:31.059Z,22.44
2022-09-23T01:19:41.056Z,22.44
2022-09-23T01:19:51.315Z,22.44
2022-09-23T01:20:01.444Z,22.44
2022-09-23T01:20:11.568Z,22.43
2022-09-23T01:20:21.694Z,22.43
2022-09-23T01:20:31.821Z,22.44
2022-09-23T01:20:41.939Z,22.44
2022-09-23T01:20:52.060Z,22.43
2022-09-23T01:21:02.177Z,22.44
2022-09-23T01:21:12.292Z,22.44
2022-09-23T01:21:22.425Z,22.43
2022-09-23T01:21:32.535Z,22.44
2022-09-23T01:21:42.663Z,22.44
2022-09-23T01:21:52.782Z,22.44
2022-09-23T01:22:02.791Z,22.44
2022-09-23T01:22:12.792Z,22.44
2022-09-23T01:22:22.791Z,22.44
2022-09-23T01:22:32.795Z,22.44
2022-09-23T01:22:42.792Z,22.44
2022-09-23T01:22:52.912Z,22.44
2022-09-23T01:23:02.915Z,22.44
2022-09-23T01:23:13.041Z,22.44
2022-09-23T01:23:23.037Z,22.44
2022-09-23T01:23:33.153Z,22.43
2022-09-23T01:23:43.276Z,22.43
2022-09-23T01:23:53.397Z,22.43
2022-09-23T01:24:03.532Z,22.43
2022-09-23T01:24:13.531Z,22.43
2022-09-23T01:24:23.650Z,22.43
2022-09-23T01:24:33.911Z,22.43
2022-09-23T01:24:43.898Z,22.44
2022-09-23T01:24:54.020Z,22.43
2022-09-23T01:25:04.270Z,22.43
2022-09-23T01:25:14.263Z,22.43
2022-09-23T01:25:24.399Z,22.43
2022-09-23T01:25:34.651Z,22.43
2022-09-23T01:25:44.650Z,22.43
2022-09-23T01:25:54.765Z,22.43
2022-09-23T01:26:05.023Z,22.43
2022-09-23T01:26:15.011Z,22.43
2022-09-23T01:26:25.130Z,22.43
2022-09-23T01:26:35.379Z,22.43
2022-09-23T01:26:45.496Z,22.43
2022-09-23T01:26:55.618Z,22.42
2022-09-23T01:27:05.748Z,22.43
2022-09-23T01:27:15.864Z,22.43
2022-09-23T01:27:25.864Z,22.43
2022-09-23T01:27:36.120Z,22.43
2022-09-23T01:27:46.234Z,22.43
2022-09-23T01:27:56.383Z,22.44
2022-09-23T01:28:06.481Z,22.43
2022-09-23T01:28:16.615Z,22.44
2022-09-23T01:28:26.613Z,22.43
2022-09-23T01:28:36.865Z,22.43
2022-09-23T01:28:46.978Z,22.43
2022-09-23T01:28:57.104Z,22.43
2022-09-23T01:29:07.221Z,22.43
2022-09-23T01:29:17.427Z,22.43
2022-09-23T01:29:27.418Z,22.43
2022-09-23T01:29:37.680Z,22.42
2022-09-23T01:29:47.710Z,22.43
2022-09-23T01:29:57.829Z,22.43
2022-09-23T01:30:08.083Z,22.42
2022-09-23T01:30:18.215Z,22.42
2022-09-23T01:30:28.312Z,22.43
2022-09-23T01:30:38.513Z,22.42
2022-09-23T01:30:48.582Z,22.43
2022-09-23T01:30:58.660Z,22.43
2022-09-23T01:31:09.065Z,22.42
2022-09-23T01:31:19.063Z,22.42
2022-09-23T01:31:28.973Z,22.43
2022-09-23T01:31:38.988Z,22.42
2022-09-23T01:31:48.980Z,22.42
2022-09-23T01:31:58.977Z,22.42
2022-09-23T01:32:09.105Z,22.42
2022-09-23T01:32:19.111Z,22.42
2022-09-23T01:32:29.233Z,22.42
2022-09-23T01:32:39.348Z,22.42
2022-09-23T01:32:49.352Z,22.42
2022-09-23T01:32:59.377Z,22.42
2022-09-23T01:33:09.370Z,22.42
2022-09-23T01:33:19.366Z,22.42
2022-09-23T01:33:29.490Z,22.42
2022-09-23T01:33:39.631Z,22.41
2022-09-23T01:33:49.724Z,22.42
2022-09-23T01:33:59.732Z,22.43
2022-09-23T01:34:09.854Z,22.42
2022-09-23T01:34:19.854Z,22.42
2022-09-23T01:34:29.979Z,22.42
2022-09-23T01:34:40.094Z,22.41
2022-09-23T01:34:50.225Z,22.42
2022-09-23T01:35:00.219Z,22.42
2022-09-23T01:35:10.336Z,22.42
2022-09-23T01:35:20.338Z,22.41
2022-09-23T01:35:30.524Z,22.41
2022-09-23T01:35:40.496Z,22.41
2022-09-23T01:35:50.618Z,22.42
2022-09-23T01:36:00.872Z,22.42
2022-09-23T01:36:11.008Z,22.42
2022-09-23T01:36:20.989Z,22.41
2022-09-23T01:36:31.239Z,22.41
2022-09-23T01:36:41.358Z,22.42
2022-09-23T01:36:51.472Z,22.41
2022-09-23T01:37:01.596Z,22.42
2022-09-23T01:37:11.711Z,22.42
2022-09-23T01:37:21.715Z,22.42
2022-09-23T01:37:31.972Z,22.42
2022-09-23T01:37:42.089Z,22.42
2022-09-23T01:37:52.217Z,22.42
2022-09-23T01:38:02.340Z,22.41
2022-09-23T01:38:12.486Z,22.42
2022-09-23T01:38:22.479Z,22.41
2022-09-23T01:38:32.734Z,22.41
2022-09-23T01:38:42.730Z,22.42
2022-09-23T01:38:52.847Z,22.41
2022-09-23T01:39:03.103Z,22.42
2022-09-23T01:39:13.221Z,22.41
2022-09-23T01:39:23.335Z,22.42
2022-09-23T01:39:33.456Z,22.41
2022-09-23T01:39:43.453Z,22.41
2022-09-23T01:39:53.577Z,22.42
2022-09-23T01:40:03.877Z,22.41
2022-09-23T01:40:13.969Z,22.42
2022-09-23T01:40:24.061Z,22.41
2022-09-23T01:40:34.340Z,22.41
2022-09-23T01:40:44.461Z,22.41
2022-09-23T01:40:54.362Z,22.41
2022-09-23T01:41:04.366Z,22.41
2022-09-23T01:41:14.478Z,22.42
2022-09-23T01:41:24.499Z,22.42
2022-09-23T01:41:34.495Z,22.41
2022-09-23T01:41:44.489Z,22.41
2022-09-23T01:41:54.607Z,22.41
2022-09-23T01:42:04.722Z,22.41
2022-09-23T01:42:14.848Z,22.42
2022-09-23T01:42:24.968Z,22.42
2022-09-23T01:42:35.098Z,22.41
2022-09-23T01:42:45.097Z,22.41
2022-09-23T01:42:55.240Z,22.41
2022-09-23T01:43:05.246Z,22.41
2022-09-23T01:43:15.494Z,22.41
2022-09-23T01:43:25.609Z,22.41
2022-09-23T01:43:35.738Z,22.41
2022-09-23T01:43:45.874Z,22.41
2022-09-23T01:43:55.865Z,22.41
2022-09-23T01:44:05.862Z,22.41
2022-09-23T01:44:16.238Z,22.42
2022-09-23T01:44:26.237Z,22.42
2022-09-23T01:44:36.359Z,22.41
2022-09-23T01:44:46.613Z,22.41
2022-09-23T01:44:56.734Z,22.41
2022-09-23T01:45:06.735Z,22.41
2022-09-23T01:45:16.990Z,22.41
2022-09-23T01:45:27.114Z,22.42
2022-09-23T01:45:37.119Z,22.41
2022-09-23T01:45:47.368Z,22.41
2022-09-23T01:45:57.483Z,22.41
2022-09-23T01:46:07.610Z,22.41
2022-09-23T01:46:17.737Z,22.41
2022-09-23T01:46:27.852Z,22.41
2022-09-23T01:46:37.976Z,22.41
2022-09-23T01:46:48.104Z,22.41
2022-09-23T01:46:58.100Z,22.41
2022-09-23T01:47:08.220Z,22.41
2022-09-23T01:47:18.480Z,22.41
2022-09-23T01:47:28.470Z,22.41
2022-09-23T01:47:38.624Z,22.41
2022-09-23T01:47:48.869Z,22.41
2022-09-23T01:47:59.050Z,22.41
2022-09-23T01:48:09.101Z,22.41
2022-09-23T01:48:19.458Z,22.40
2022-09-23T01:48:29.512Z,22.42
2022-09-23T01:48:39.594Z,22.41
2022-09-23T01:48:49.834Z,22.41
2022-09-23T01:48:59.826Z,22.41
2022-09-23T01:49:09.931Z,22.41
2022-09-23T01:49:20.196Z,22.40
2022-09-23T01:49:30.190Z,22.40
2022-09-23T01:49:40.322Z,22.41
2022-09-23T01:49:50.587Z,22.40
2022-09-23T01:50:00.581Z,22.40
2022-09-23T01:50:10.699Z,22.41
2022-09-23T01:50:20.954Z,22.40
2022-09-23T01:50:31.077Z,22.40
2022-09-23T01:50:41.194Z,22.41
2022-09-23T01:50:51.335Z,22.41
2022-09-23T01:51:01.449Z,22.41
2022-09-23T01:51:11.567Z,22.40
2022-09-23T01:51:21.685Z,22.40
2022-09-23T01:51:31.800Z,22.40
2022-09-23T01:51:41.927Z,22.41
2022-09-23T01:51:52.046Z,22.40
2022-09-23T01:52:02.166Z,22.40
2022-09-23T01:52:12.296Z,22.40
2022-09-23T01:52:22.431Z,22.40
2022-09-23T01:52:32.419Z,22.41
2022-09-23T01:52:42.541Z,22.40
2022-09-23T01:52:52.789Z,22.40
2022-09-23T01:53:02.919Z,22.41
2022-09-23T01:53:12.917Z,22.41
2022-09-23T01:53:23.166Z,22.40
2022-09-23T01:53:33.164Z,22.41
2022-09-23T01:53:43.305Z,22.40
2022-09-23T01:53:53.557Z,22.41
2022-09-23T01:54:03.679Z,22.40
2022-09-23T01:54:13.796Z,22.40
2022-09-23T01:54:23.916Z,22.41
2022-09-23T01:54:34.032Z,22.41
2022-09-23T01:54:44.034Z,22.41
2022-09-23T01:54:54.294Z,22.41
2022-09-23T01:55:04.407Z,22.40
2022-09-23T01:55:14.403Z,22.41
2022-09-23T01:55:24.652Z,22.41
2022-09-23T01:55:34.652Z,22.40
2022-09-23T01:55:44.782Z,22.40
2022-09-23T01:55:55.037Z,22.40
2022-09-23T01:56:05.154Z,22.40
2022-09-23T01:56:15.269Z,22.39
2022-09-23T01:56:25.393Z,22.40
2022-09-23T01:56:35.506Z,22.40
2022-09-23T01:56:45.629Z,22.41
2022-09-23T01:56:55.762Z,22.40
2022-09-23T01:57:05.879Z,22.41
2022-09-23T01:57:15.886Z,22.40
2022-09-23T01:57:26.137Z,22.40
2022-09-23T01:57:36.132Z,22.41
2022-09-23T01:57:46.264Z,22.40
2022-09-23T01:57:56.518Z,22.40
2022-09-23T01:58:06.636Z,22.40
2022-09-23T01:58:16.758Z,22.40
2022-09-23T01:58:26.883Z,22.40
2022-09-23T01:58:36.881Z,22.40
2022-09-23T01:58:47.018Z,22.41
2022-09-23T01:58:57.275Z,22.40
2022-09-23T01:59:07.396Z,22.40
2022-09-23T01:59:17.513Z,22.41
2022-09-23T01:59:27.636Z,22.40
2022-09-23T01:59:37.758Z,22.40
2022-09-23T01:59:47.864Z,22.40
2022-09-23T01:59:57.989Z,22.40
2022-09-23T02:00:07.987Z,22.40
2022-09-23T02:00:18.105Z,22.40
2022-09-23T02:00:28.357Z,22.40
2022-09-23T02:00:38.350Z,22.40
2022-09-23T02:00:48.469Z,22.40
2022-09-23T02:00:58.782Z,22.41
2022-09-23T02:01:08.909Z,22.40
2022-09-23T02:01:18.818Z,22.40
2022-09-23T02:01:28.910Z,22.40
2022-09-23T02:01:38.965Z,22.39
2022-09-23T02:01:49.034Z,22.40
2022-09-23T02:01:59.109Z,22.40
2022-09-23T02:02:09.171Z,22.40
2022-09-23T02:02:19.273Z,22.40
2022-09-23T02:02:29.308Z,22.40
2022-09-23T02:02:39.405Z,22.40
2022-09-23T02:02:49.534Z,22.40
2022-09-23T02:02:59.506Z,22.39
2022-09-23T02:03:09.626Z,22.40
2022-09-23T02:03:19.746Z,22.39
2022-09-23T02:03:29.869Z,22.40
2022-09-23T02:03:39.985Z,22.40
2022-09-23T02:03:50.110Z,22.40
2022-09-23T02:04:00.267Z,22.40
2022-09-23T02:04:10.234Z,22.39
2022-09-23T02:04:20.248Z,22.40
2022-09-23T02:04:30.365Z,22.40
2022-09-23T02:04:40.481Z,22.39
2022-09-23T02:04:50.611Z,22.39
2022-09-23T02:05:00.600Z,22.40
2022-09-23T02:05:10.716Z,22.40
2022-09-23T02:05:20.961Z,22.39
2022-09-23T02:05:31.076Z,22.40
2022-09-23T02:05:41.201Z,22.40
2022-09-23T02:05:51.331Z,22.40
2022-09-23T02:06:01.363Z,22.40
2022-09-23T02:06:11.367Z,22.40
2022-09-23T02:06:21.747Z,22.40
2022-09-23T02:06:31.863Z,22.39
2022-09-23T02:06:41.865Z,22.40
2022-09-23T02:06:52.123Z,22.40
2022-09-23T02:07:02.241Z,22.40
2022-09-23T02:07:12.368Z,22.39
2022-09-23T02:07:22.497Z,22.40
2022-09-23T02:07:32.503Z,22.40
2022-09-23T02:07:42.618Z,22.40
2022-09-23T02:07:52.869Z,22.39
2022-09-23T02:08:02.983Z,22.40
2022-09-23T02:08:13.105Z,22.40
2022-09-23T02:08:23.241Z,22.40
2022-09-23T02:08:33.246Z,22.40
2022-09-23T02:08:43.381Z,22.40
2022-09-23T02:08:53.640Z,22.40
2022-09-23T02:09:03.638Z,22.39
2022-09-23T02:09:13.764Z,22.40
2022-09-23T02:09:24.019Z,22.39
2022-09-23T02:09:34.009Z,22.40
2022-09-23T02:09:44.125Z,22.40
2022-09-23T02:09:54.380Z,22.40
2022-09-23T02:10:04.373Z,22.40